createdAt,value
2022-09-10T00:02:01.926Z,21.93
2022-09-10T00:04:31.428Z,22.76
2022-09-10T00:06:59.489Z,23.24
2022-09-10T00:09:27.597Z,23.33
2022-09-10T00:11:56.780Z,22.55
2022-09-10T00:14:25.549Z,21.71
2022-09-10T00:16:54.953Z,21.03
2022-09-10T00:19:23.005Z,20.82
2022-09-10T00:21:51.013Z,21.67
2022-09-10T00:24:19.322Z,22.52
2022-09-10T00:26:47.329Z,23.04
2022-09-10T00:29:20.649Z,23.14
2022-09-10T00:31:49.559Z,22.31
2022-09-10T00:34:17.917Z,21.41
2022-09-10T00:36:47.136Z,20.71
2022-09-10T00:39:19.263Z,20.47
2022-09-10T00:41:48.795Z,21.40
2022-09-10T00:44:45.543Z,22.29
2022-09-10T00:47:20.360Z,22.89
2022-09-10T00:50:07.790Z,23.00
2022-09-10T00:52:39.631Z,22.14
2022-09-10T00:55:10.487Z,21.33
2022-09-10T00:57:39.067Z,20.67
2022-09-10T01:00:11.859Z,20.40
2022-09-10T01:02:40.230Z,21.21
2022-09-10T01:05:09.228Z,22.02
2022-09-10T01:07:38.084Z,22.58
2022-09-10T01:10:15.199Z,22.71
2022-09-10T01:13:28.696Z,21.98
2022-09-10T01:16:23.704Z,21.08
2022-09-10T01:19:26.551Z,20.87
2022-09-10T01:22:14.665Z,21.98
2022-09-10T01:24:59.224Z,22.79
2022-09-10T01:27:31.059Z,22.97
2022-09-10T01:30:10.460Z,22.27
2022-09-10T01:32:59.177Z,21.51
2022-09-10T01:35:57.106Z,20.90
2022-09-10T01:38:33.090Z,20.88
2022-09-10T01:41:02.495Z,21.86
2022-09-10T01:43:37.627Z,22.61
2022-09-10T01:46:44.199Z,22.85
2022-09-10T01:49:19.275Z,22.04
2022-09-10T01:52:32.453Z,21.31
2022-09-10T01:55:15.682Z,20.64
2022-09-10T01:58:21.910Z,20.56
2022-09-10T02:01:18.190Z,21.76
2022-09-10T02:03:48.878Z,22.50
2022-09-10T02:06:19.813Z,22.83
2022-09-10T02:08:51.837Z,22.22
2022-09-10T02:11:20.066Z,21.49
2022-09-10T02:13:55.720Z,20.91
2022-09-10T02:16:55.208Z,20.83
2022-09-10T02:19:23.261Z,21.70
2022-09-10T02:21:53.175Z,22.43
2022-09-10T02:24:21.895Z,22.93
2022-09-10T02:26:50.132Z,23.03
2022-09-10T02:29:21.855Z,22.27
2022-09-10T02:31:49.894Z,21.48
2022-09-10T02:34:17.925Z,21.13
2022-09-10T02:36:49.558Z,21.85
2022-09-10T02:39:18.435Z,22.57
2022-09-10T02:41:48.210Z,23.02
2022-09-10T02:44:16.835Z,23.12
2022-09-10T02:46:45.410Z,22.45
2022-09-10T02:49:18.098Z,21.69
2022-09-10T02:51:50.824Z,21.33
2022-09-10T02:54:22.635Z,22.02
2022-09-10T02:56:50.641Z,22.70
2022-09-10T02:59:20.664Z,23.08
2022-09-10T03:01:49.858Z,23.19
2022-09-10T03:04:18.264Z,22.51
2022-09-10T03:06:49.340Z,21.67
2022-09-10T03:09:17.461Z,21.21
2022-09-10T03:11:48.026Z,21.81
2022-09-10T03:14:21.647Z,22.45
2022-09-10T03:16:49.797Z,22.87
2022-09-10T03:19:17.962Z,23.18
2022-09-10T03:21:47.655Z,23.12
2022-09-10T03:24:16.990Z,22.35
2022-09-10T03:26:46.751Z,21.56
2022-09-10T03:29:16.209Z,21.18
2022-09-10T03:31:46.794Z,21.82
2022-09-10T03:34:16.581Z,22.43
2022-09-10T03:36:47.452Z,22.81
2022-09-10T03:39:18.966Z,23.14
2022-09-10T03:41:48.040Z,23.19
2022-09-10T03:44:18.459Z,22.48
2022-09-10T03:46:49.333Z,21.73
2022-09-10T03:49:18.698Z,21.18
2022-09-10T03:51:48.234Z,21.01
2022-09-10T03:54:18.098Z,21.73
2022-09-10T03:56:47.158Z,22.42
2022-09-10T03:59:15.491Z,22.85
2022-09-10T04:01:44.472Z,23.11
2022-09-10T04:04:15.523Z,23.14
2022-09-10T04:06:44.479Z,22.44
2022-09-10T04:09:15.740Z,21.66
2022-09-10T04:11:43.926Z,21.26
2022-09-10T04:14:12.754Z,21.87
2022-09-10T04:16:43.291Z,22.61
2022-09-10T04:19:14.805Z,23.06
2022-09-10T04:21:42.891Z,23.14
2022-09-10T04:24:14.048Z,22.49
2022-09-10T04:26:42.723Z,21.74
2022-09-10T04:29:13.704Z,21.13
2022-09-10T04:31:42.385Z,20.89
2022-09-10T04:34:17.116Z,21.56
2022-09-10T04:36:45.164Z,22.13
2022-09-10T04:39:17.066Z,22.55
2022-09-10T04:41:47.740Z,22.92
2022-09-10T04:44:19.869Z,23.21
2022-09-10T04:46:49.409Z,23.29
2022-09-10T04:49:18.385Z,22.59
2022-09-10T04:51:50.297Z,21.86
2022-09-10T04:54:19.797Z,21.31
2022-09-10T04:56:52.453Z,21.16
2022-09-10T04:59:21.364Z,22.14
2022-09-10T05:01:50.645Z,23.00
2022-09-10T05:04:19.678Z,23.59
2022-09-10T05:06:50.270Z,23.53
2022-09-10T05:09:18.410Z,22.70
2022-09-10T05:11:50.047Z,21.96
2022-09-10T05:14:20.386Z,21.39
2022-09-10T05:16:48.376Z,21.26
2022-09-10T05:19:18.555Z,22.12
2022-09-10T05:21:53.077Z,22.91
2022-09-10T05:24:22.682Z,23.40
2022-09-10T05:26:50.655Z,23.51
2022-09-10T05:29:19.355Z,22.84
2022-09-10T05:31:47.257Z,22.12
2022-09-10T05:34:15.339Z,21.55
2022-09-10T05:36:43.393Z,21.40
2022-09-10T05:39:11.918Z,22.21
2022-09-10T05:41:39.980Z,23.02
2022-09-10T05:44:09.045Z,23.54
2022-09-10T05:46:37.939Z,23.64
2022-09-10T05:49:13.202Z,22.95
2022-09-10T05:51:42.109Z,22.25
2022-09-10T05:54:11.334Z,21.73
2022-09-10T05:56:39.707Z,21.60
2022-09-10T05:59:08.235Z,22.44
2022-09-10T06:01:38.570Z,23.21
2022-09-10T06:04:07.610Z,23.69
2022-09-10T06:06:36.149Z,23.78
2022-09-10T06:09:08.586Z,23.11
2022-09-10T06:12:01.638Z,22.35
2022-09-10T06:14:31.944Z,21.84
2022-09-10T06:17:03.014Z,21.69
2022-09-10T06:19:32.362Z,22.53
2022-09-10T06:22:03.272Z,23.25
2022-09-10T06:24:37.573Z,23.56
2022-09-10T06:27:06.198Z,23.02
2022-09-10T06:29:36.800Z,22.38
2022-09-10T06:32:05.646Z,21.92
2022-09-10T06:34:35.819Z,21.79
2022-09-10T06:37:06.219Z,22.57
2022-09-10T06:39:36.958Z,23.38
2022-09-10T06:42:07.162Z,23.84
2022-09-10T06:45:04.575Z,23.82
2022-09-10T06:48:37.180Z,23.22
2022-09-10T06:50:58.904Z,22.69
2022-09-10T06:53:37.699Z,22.38
2022-09-10T06:56:11.244Z,22.17
2022-09-10T06:58:39.800Z,21.97
2022-09-10T07:01:19.702Z,21.81
2022-09-10T07:04:00.079Z,22.07
2022-09-10T07:06:33.704Z,23.24
2022-09-10T07:09:23.795Z,24.27
2022-09-10T07:12:00.228Z,24.56
2022-09-10T07:14:33.179Z,24.11
2022-09-10T07:17:12.799Z,23.69
2022-09-10T07:19:43.040Z,23.39
2022-09-10T07:22:21.659Z,23.17
2022-09-10T07:24:51.623Z,22.96
2022-09-10T07:27:30.087Z,22.78
2022-09-10T07:30:00.008Z,22.61
2022-09-10T07:32:29.644Z,22.44
2022-09-10T07:35:08.023Z,22.31
2022-09-10T07:37:40.757Z,22.26
2022-09-10T07:40:09.698Z,22.18
2022-09-10T07:42:38.432Z,22.13
2022-09-10T07:45:07.229Z,22.13
2022-09-10T07:47:38.435Z,22.10
2022-09-10T07:50:07.253Z,22.08
2022-09-10T07:52:35.593Z,22.08
2022-09-10T07:55:07.517Z,22.06
2022-09-10T07:57:39.915Z,22.13
2022-09-10T08:00:12.853Z,22.09
2022-09-10T08:02:44.856Z,21.88
2022-09-10T08:05:21.800Z,21.59
2022-09-10T08:07:55.713Z,21.36
2022-09-10T08:10:27.609Z,21.26
2022-09-10T08:13:01.343Z,21.38
2022-09-10T08:15:29.357Z,21.53
2022-09-10T08:18:00.842Z,21.63
2022-09-10T08:20:29.715Z,21.66
2022-09-10T08:23:04.341Z,21.75
2022-09-10T08:25:34.422Z,21.84
2022-09-10T08:28:03.521Z,21.94
2022-09-10T08:30:32.256Z,22.08
2022-09-10T08:33:03.967Z,22.15
2022-09-10T08:35:34.938Z,22.13
2022-09-10T08:38:02.880Z,22.09
2022-09-10T08:40:32.669Z,22.04
2022-09-10T08:43:05.492Z,22.06
2022-09-10T08:45:37.039Z,22.09
2022-09-10T08:48:10.620Z,22.12
2022-09-10T08:50:44.583Z,22.13
2022-09-10T08:53:34.963Z,22.12
2022-09-10T08:56:08.914Z,22.13
2022-09-10T08:58:56.691Z,22.17
2022-09-10T09:01:42.518Z,22.18
2022-09-10T09:04:18.275Z,22.25
2022-09-10T09:06:58.134Z,22.29
2022-09-10T09:09:39.068Z,22.27
2022-09-10T09:12:40.486Z,22.29
2022-09-10T09:15:09.219Z,22.33
2022-09-10T09:18:11.017Z,22.39
2022-09-10T09:20:57.604Z,22.45
2022-09-10T09:24:02.812Z,22.46
2022-09-10T09:26:36.501Z,22.47
2022-09-10T09:29:38.881Z,22.49
2022-09-10T09:32:09.840Z,22.52
2022-09-10T09:34:40.167Z,22.60
2022-09-10T09:37:33.741Z,22.69
2022-09-10T09:40:12.694Z,22.70
2022-09-10T09:42:52.649Z,22.71
2022-09-10T09:45:34.902Z,22.93
2022-09-10T09:48:06.870Z,23.34
2022-09-10T09:50:39.647Z,23.69
2022-09-10T09:53:12.100Z,24.00
2022-09-10T09:56:13.171Z,24.34
2022-09-10T09:59:06.388Z,24.71
2022-09-10T10:01:39.622Z,24.96
2022-09-10T10:04:24.391Z,24.97
2022-09-10T10:15:37.073Z,24.84
2022-09-10T10:18:33.382Z,24.92
2022-09-10T10:21:20.444Z,25.02
2022-09-10T10:24:37.297Z,25.06
2022-09-10T10:27:05.491Z,25.39
2022-09-10T10:29:36.161Z,25.60
2022-09-10T10:32:51.949Z,25.80
2022-09-10T10:35:29.631Z,26.05
2022-09-10T10:38:10.874Z,26.17
2022-09-10T10:41:30.166Z,26.34
2022-09-10T10:44:06.349Z,26.55
2022-09-10T10:47:02.467Z,26.49
2022-09-10T10:50:05.124Z,26.48
2022-09-10T10:53:20.508Z,26.58
2022-09-10T10:56:30.549Z,26.69
2022-09-10T10:59:45.489Z,26.77
2022-09-10T11:02:30.467Z,26.80
2022-09-10T11:05:05.254Z,26.84
2022-09-10T11:07:39.812Z,26.78
2022-09-10T11:10:40.019Z,26.93
2022-09-10T11:13:22.847Z,27.26
2022-09-10T11:16:00.129Z,27.56
2022-09-10T11:18:36.535Z,27.77
2022-09-10T11:21:44.845Z,27.88
2022-09-10T11:24:19.567Z,27.90
2022-09-10T11:26:54.390Z,27.91
2022-09-10T11:29:37.416Z,28.03
2022-09-10T11:32:11.476Z,28.17
2022-09-10T11:35:19.470Z,28.21
2022-09-10T11:38:24.061Z,28.33
2022-09-10T11:41:14.254Z,28.32
2022-09-10T11:43:56.183Z,27.97
2022-09-10T11:46:36.183Z,27.59
2022-09-10T11:49:13.241Z,27.47
2022-09-10T11:51:41.855Z,27.59
2022-09-10T11:54:31.784Z,27.70
2022-09-10T11:57:35.065Z,27.81
2022-09-10T12:00:20.947Z,27.91
2022-09-10T12:03:07.998Z,28.02
2022-09-10T12:05:48.934Z,27.97
2022-09-10T12:08:42.383Z,27.97
2022-09-10T12:11:28.553Z,28.10
2022-09-10T12:13:58.332Z,28.17
2022-09-10T12:16:43.924Z,28.29
2022-09-10T12:19:26.946Z,28.49
2022-09-10T12:22:01.981Z,28.42
2022-09-10T12:24:35.185Z,28.31
2022-09-10T12:27:06.930Z,28.28
2022-09-10T12:29:43.446Z,28.05
2022-09-10T12:32:19.423Z,27.80
2022-09-10T12:34:52.948Z,27.42
2022-09-10T12:37:28.233Z,26.99
2022-09-10T12:40:35.201Z,26.81
2022-09-10T12:43:41.718Z,26.91
2022-09-10T12:46:16.502Z,26.82
2022-09-10T12:48:52.643Z,26.84
2022-09-10T12:51:42.664Z,27.02
2022-09-10T12:54:27.369Z,27.29
2022-09-10T12:57:09.740Z,27.55
2022-09-10T12:59:49.191Z,27.87
2022-09-10T13:02:33.186Z,28.08
2022-09-10T13:05:07.011Z,28.19
2022-09-10T13:07:42.308Z,28.38
2022-09-10T13:10:26.453Z,28.54
2022-09-10T13:13:08.645Z,28.55
2022-09-10T13:15:39.048Z,28.38
2022-09-10T13:18:29.159Z,28.27
2022-09-10T13:21:02.722Z,28.09
2022-09-10T13:23:45.084Z,27.87
2022-09-10T13:26:31.581Z,27.81
2022-09-10T13:29:08.405Z,27.88
2022-09-10T13:31:44.378Z,28.00
2022-09-10T13:34:15.402Z,28.15
2022-09-10T13:37:02.792Z,28.40
2022-09-10T13:39:39.938Z,28.71
2022-09-10T13:42:19.384Z,29.15
2022-09-10T13:45:08.858Z,29.54
2022-09-10T13:47:47.071Z,29.76
2022-09-10T13:50:24.263Z,29.68
2022-09-10T13:52:57.188Z,29.35
2022-09-10T13:55:28.116Z,29.00
2022-09-10T13:58:00.046Z,28.69
2022-09-10T14:00:54.852Z,28.31
2022-09-10T14:03:34.077Z,27.92
2022-09-10T14:06:24.060Z,27.56
2022-09-10T14:09:05.098Z,27.15
2022-09-10T14:14:30.512Z,26.48
2022-09-10T14:17:42.760Z,26.68
2022-09-10T14:20:18.379Z,27.21
2022-09-10T14:22:47.399Z,27.45
2022-09-10T14:25:40.453Z,27.48
2022-09-10T14:28:23.888Z,27.37
2022-09-10T14:30:55.231Z,27.24
2022-09-10T14:33:32.204Z,27.10
2022-09-10T14:36:29.744Z,27.00
2022-09-10T14:39:19.929Z,27.01
2022-09-10T14:42:08.346Z,27.76
2022-09-10T14:44:41.978Z,28.63
2022-09-10T14:47:21.248Z,29.27
2022-09-10T14:49:49.389Z,29.15
2022-09-10T14:52:18.375Z,28.83
2022-09-10T14:54:46.724Z,28.45
2022-09-10T14:57:18.008Z,27.97
2022-09-10T14:59:46.560Z,27.55
2022-09-10T15:02:23.469Z,27.20
2022-09-10T15:04:52.730Z,26.82
2022-09-10T15:07:23.689Z,26.45
2022-09-10T15:09:55.099Z,26.07
2022-09-10T15:12:31.235Z,25.72
2022-09-10T15:14:59.943Z,25.43
2022-09-10T15:17:28.277Z,25.16
2022-09-10T15:19:58.008Z,24.78
2022-09-10T15:22:28.985Z,24.46
2022-09-10T15:25:10.083Z,24.18
2022-09-10T15:27:40.366Z,23.97
2022-09-10T15:30:08.949Z,23.83
2022-09-10T15:32:36.920Z,23.69
2022-09-10T15:35:05.855Z,23.53
2022-09-10T15:37:35.304Z,23.38
2022-09-10T15:40:07.101Z,23.22
2022-09-10T15:42:42.469Z,23.10
2022-09-10T15:45:13.361Z,23.02
2022-09-10T15:47:43.160Z,22.99
2022-09-10T15:50:12.522Z,22.93
2022-09-10T15:52:40.695Z,22.84
2022-09-10T15:59:58.172Z,22.52
2022-09-10T16:02:26.686Z,22.43
2022-09-10T16:04:54.830Z,22.34
2022-09-10T16:07:23.126Z,22.26
2022-09-10T16:09:53.551Z,22.18
2022-09-10T16:12:22.336Z,22.11
2022-09-10T16:19:57.609Z,21.87
2022-09-10T16:22:30.817Z,21.79
2022-09-10T16:24:58.807Z,22.06
2022-09-10T16:27:27.120Z,23.30
2022-09-10T16:29:55.700Z,24.17
2022-09-10T16:32:24.877Z,23.84
2022-09-10T16:34:56.766Z,23.27
2022-09-10T16:37:26.357Z,22.81
2022-09-10T16:39:58.481Z,22.47
2022-09-10T16:42:29.076Z,22.24
2022-09-10T16:45:04.333Z,22.03
2022-09-10T16:47:42.473Z,21.79
2022-09-10T16:50:17.304Z,21.85
2022-09-10T16:57:21.789Z,24.29
2022-09-10T16:59:50.064Z,24.54
2022-09-10T17:02:25.632Z,23.98
2022-09-10T17:04:57.451Z,23.26
2022-09-10T17:07:27.898Z,22.73
2022-09-10T17:10:00.762Z,22.34
2022-09-10T17:12:35.712Z,22.03
2022-09-10T17:15:04.593Z,22.01
2022-09-10T17:17:35.028Z,22.92
2022-09-10T17:20:07.916Z,23.73
2022-09-10T17:22:36.809Z,24.05
2022-09-10T17:25:14.939Z,23.48
2022-09-10T17:28:39.464Z,22.75
2022-09-10T17:35:28.300Z,21.51
2022-09-10T17:46:12.628Z,24.09
2022-09-10T17:48:44.983Z,24.18
2022-09-10T17:51:18.562Z,23.42
2022-09-10T17:54:10.779Z,22.65
2022-09-10T17:56:39.257Z,21.93
2022-09-10T17:59:07.377Z,21.41
2022-09-10T18:01:40.038Z,21.26
2022-09-10T18:04:11.757Z,22.15
2022-09-10T18:06:42.311Z,22.89
2022-09-10T18:09:15.375Z,22.80
2022-09-10T18:11:44.068Z,21.97
2022-09-10T18:14:26.435Z,21.24
2022-09-10T18:16:56.966Z,20.65
2022-09-10T18:19:43.870Z,20.54
2022-09-10T18:22:54.165Z,21.70
2022-09-10T18:25:28.621Z,22.42
2022-09-10T18:27:58.033Z,22.88
2022-09-10T18:30:54.100Z,23.01
2022-09-10T18:33:22.622Z,22.25
2022-09-10T18:35:51.499Z,21.62
2022-09-10T18:38:20.223Z,21.16
2022-09-10T18:40:57.631Z,20.76
2022-09-10T18:50:38.831Z,22.61
2022-09-10T18:53:13.939Z,22.00
2022-09-10T18:55:45.733Z,21.27
2022-09-10T18:58:14.423Z,20.74
2022-09-10T19:00:45.162Z,20.31
2022-09-10T19:03:18.353Z,20.28
2022-09-10T19:05:48.438Z,21.31
2022-09-10T19:08:19.407Z,22.21
2022-09-10T19:10:49.541Z,22.74
2022-09-10T19:13:18.412Z,22.80
2022-09-10T19:15:55.033Z,22.13
2022-09-10T19:18:26.676Z,21.43
2022-09-10T19:21:01.417Z,20.95
2022-09-10T19:23:37.716Z,20.86
2022-09-10T19:26:09.960Z,21.82
2022-09-10T19:28:42.593Z,22.66
2022-09-10T19:31:19.723Z,22.94
2022-09-10T19:33:48.695Z,22.27
2022-09-10T19:36:24.126Z,21.53
2022-09-10T19:38:54.623Z,20.95
2022-09-10T19:41:28.902Z,20.81
2022-09-10T19:44:00.331Z,21.75
2022-09-10T19:46:29.366Z,22.58
2022-09-10T19:48:59.892Z,22.85
2022-09-10T19:51:31.241Z,22.23
2022-09-10T19:54:01.115Z,21.52
2022-09-10T19:56:32.943Z,20.98
2022-09-10T19:59:02.724Z,20.56
2022-09-10T20:01:36.603Z,20.51
2022-09-10T20:04:07.916Z,21.58
2022-09-10T20:06:37.224Z,22.48
2022-09-10T20:09:07.034Z,23.05
2022-09-10T20:11:39.042Z,23.19
2022-09-10T20:14:13.566Z,22.43
2022-09-10T20:16:45.453Z,21.63
2022-09-10T20:19:18.256Z,21.05
2022-09-10T20:21:47.804Z,20.91
2022-09-10T20:24:15.943Z,21.88
2022-09-10T20:26:46.435Z,22.75
2022-09-10T20:29:18.508Z,23.03
2022-09-10T20:31:48.786Z,22.36
2022-09-10T20:34:19.987Z,21.64
2022-09-10T20:36:53.396Z,21.07
2022-09-10T20:39:24.107Z,20.63
2022-09-10T20:41:53.038Z,20.28
2022-09-10T20:44:21.193Z,20.25
2022-09-10T20:46:49.640Z,21.22
2022-09-10T20:49:19.637Z,22.05
2022-09-10T20:51:49.429Z,22.55
2022-09-10T20:54:18.725Z,22.64
2022-09-10T20:56:47.972Z,21.91
2022-09-10T20:59:17.999Z,21.11
2022-09-10T21:01:47.070Z,20.50
2022-09-10T21:04:15.346Z,20.37
2022-09-10T21:06:43.406Z,21.33
2022-09-10T21:09:12.225Z,22.15
2022-09-10T21:11:40.724Z,22.60
2022-09-10T21:14:09.184Z,22.34
2022-09-10T21:16:41.798Z,21.57
2022-09-10T21:19:12.367Z,20.92
2022-09-10T21:21:41.369Z,20.39
2022-09-10T21:24:17.586Z,20.30
2022-09-10T21:26:46.104Z,21.23
2022-09-10T21:29:19.663Z,21.98
2022-09-10T21:31:50.448Z,22.27
2022-09-10T21:34:19.343Z,21.66
2022-09-10T21:36:47.346Z,20.97
2022-09-10T21:39:17.442Z,20.46
2022-09-10T21:41:47.880Z,20.36
2022-09-10T21:44:17.934Z,21.37
2022-09-10T21:46:47.689Z,22.31
2022-09-10T21:49:16.395Z,22.62
2022-09-10T21:51:45.195Z,21.99
2022-09-10T21:54:15.267Z,21.27
2022-09-10T21:56:43.254Z,20.72
2022-09-10T21:59:14.693Z,20.28
2022-09-10T22:01:44.814Z,20.20
2022-09-10T22:07:56.040Z,22.45
2022-09-10T22:10:23.945Z,22.74
2022-09-10T22:12:55.934Z,22.09
2022-09-10T22:19:33.230Z,20.45
2022-09-10T22:22:02.836Z,20.40
2022-09-10T22:24:40.708Z,21.55
2022-09-10T22:27:10.833Z,22.48
2022-09-10T22:29:41.133Z,22.77
2022-09-10T22:36:32.710Z,20.89
2022-09-10T22:39:59.063Z,20.38
2022-09-10T22:42:27.901Z,19.84
2022-09-10T22:44:56.935Z,19.86
2022-09-10T22:47:33.494Z,20.91
2022-09-10T22:50:01.666Z,21.86
2022-09-10T22:52:34.249Z,22.25
2022-09-10T22:55:04.470Z,21.69
2022-09-10T22:57:33.147Z,20.98
2022-09-10T23:00:09.389Z,20.40
2022-09-10T23:02:39.159Z,19.97
2022-09-10T23:05:07.439Z,19.90
2022-09-10T23:07:37.116Z,20.91
2022-09-10T23:10:05.723Z,21.80
2022-09-10T23:12:34.861Z,22.10
2022-09-10T23:15:04.658Z,21.44
2022-09-10T23:17:34.531Z,20.65
2022-09-10T23:20:02.695Z,20.05
2022-09-10T23:22:30.587Z,19.88
2022-09-10T23:24:58.843Z,20.85
2022-09-10T23:27:28.628Z,21.76
2022-09-10T23:29:57.097Z,22.05
2022-09-10T23:32:26.113Z,21.37
2022-09-10T23:34:53.942Z,20.59
2022-09-10T23:37:25.605Z,19.98
2022-09-10T23:39:54.238Z,19.53
2022-09-10T23:42:22.561Z,19.43
2022-09-10T23:44:50.464Z,20.32
2022-09-10T23:47:18.679Z,21.11
2022-09-10T23:49:46.534Z,21.63
2022-09-10T23:52:16.115Z,21.76
2022-09-10T23:54:44.152Z,21.07
2022-09-10T23:57:14.086Z,20.26
2022-09-10T23:59:42.081Z,19.63
